ARG1975 SULS-SABE
Flight info
| Callsign | ARG1975 |
|---|---|
| Flight time | N/A |
| Altitude | 20000 |
| Route | LUCIO A306 UGIMI |
| Aircraft | B738/M-SDE2E3FGHIRWXY/LB1 |
Departure
| Time | 2026-04-26 01:28 |
|---|---|
| Airport | Capitan Corbeta CA Curbelo International Airport (SULS) |
Arrival
| Time | N/A |
|---|---|
| Airport | Aeroparque Jorge Newbery (SABE) |
| Time | Latitude | Longitude | Altitude | Speed | Heading |
|---|---|---|---|---|---|
| 2026-04-26 01:10 | -34.85961 | -55.09898 | 99 ft | 0 kts | 161° |
| 2026-04-26 01:21 | -34.85966 | -55.09896 | 99 ft | 3 kts | 161° |
| 2026-04-26 01:21 | -34.85991 | -55.09878 | 99 ft | 5 kts | 129° |
| 2026-04-26 01:21 | -34.85990 | -55.09839 | 99 ft | 5 kts | 69° |
| 2026-04-26 01:21 | -34.85975 | -55.09804 | 99 ft | 5 kts | 44° |
| 2026-04-26 01:22 | -34.85944 | -55.09803 | 99 ft | 5 kts | 342° |
| 2026-04-26 01:22 | -34.85914 | -55.09815 | 99 ft | 5 kts | 342° |
| 2026-04-26 01:22 | -34.85878 | -55.09829 | 99 ft | 8 kts | 342° |
| 2026-04-26 01:22 | -34.85798 | -55.09860 | 99 ft | 14 kts | 342° |
| 2026-04-26 01:23 | -34.85709 | -55.09895 | 100 ft | 13 kts | 342° |
| 2026-04-26 01:23 | -34.85660 | -55.09971 | 101 ft | 13 kts | 259° |
| 2026-04-26 01:23 | -34.85687 | -55.10074 | 99 ft | 13 kts | 251° |
| 2026-04-26 01:23 | -34.85716 | -55.10182 | 97 ft | 15 kts | 251° |
| 2026-04-26 01:24 | -34.85750 | -55.10306 | 98 ft | 16 kts | 252° |
| 2026-04-26 01:24 | -34.85783 | -55.10429 | 99 ft | 15 kts | 252° |
| 2026-04-26 01:24 | -34.85815 | -55.10548 | 98 ft | 14 kts | 252° |
| 2026-04-26 01:24 | -34.85846 | -55.10662 | 99 ft | 14 kts | 252° |
| 2026-04-26 01:25 | -34.85877 | -55.10777 | 99 ft | 14 kts | 253° |
| 2026-04-26 01:25 | -34.85904 | -55.10889 | 98 ft | 13 kts | 253° |
| 2026-04-26 01:25 | -34.85933 | -55.10994 | 98 ft | 13 kts | 251° |
| 2026-04-26 01:25 | -34.85961 | -55.11096 | 99 ft | 13 kts | 252° |
| 2026-04-26 01:26 | -34.86011 | -55.11164 | 98 ft | 8 kts | 224° |
| 2026-04-26 01:26 | -34.85995 | -55.11193 | 97 ft | 5 kts | 354° |
| 2026-04-26 01:26 | -34.85978 | -55.11160 | 99 ft | 5 kts | 75° |
| 2026-04-26 01:26 | -34.85975 | -55.11151 | 99 ft | 0 kts | 72° |
| 2026-04-26 01:27 | -34.85947 | -55.11042 | 98 ft | 47 kts | 72° |
| 2026-04-26 01:27 | -34.85765 | -55.10362 | 99 ft | 120 kts | 72° |
| 2026-04-26 01:28 | -34.85554 | -55.09597 | 140 ft | 157 kts | 71° |
| 2026-04-26 01:28 | -34.85230 | -55.08393 | 1019 ft | 139 kts | 71° |
| 2026-04-26 01:28 | -34.84963 | -55.07292 | 1803 ft | 135 kts | 72° |
| 2026-04-26 01:28 | -34.84548 | -55.05658 | 2293 ft | 175 kts | 72° |
| 2026-04-26 01:29 | -34.84295 | -55.04652 | 2507 ft | 199 kts | 72° |
| 2026-04-26 01:29 | -34.83851 | -55.02898 | 2770 ft | 229 kts | 72° |
| 2026-04-26 01:29 | -34.83570 | -55.00908 | 3056 ft | 256 kts | 95° |
| 2026-04-26 01:29 | -34.84144 | -54.98839 | 3868 ft | 265 kts | 123° |
| 2026-04-26 01:30 | -34.85479 | -54.97295 | 4795 ft | 269 kts | 152° |
| 2026-04-26 01:30 | -34.87287 | -54.96698 | 5660 ft | 276 kts | 180° |
| 2026-04-26 01:30 | -34.89152 | -54.97235 | 6497 ft | 280 kts | 210° |
| 2026-04-26 01:30 | -34.90574 | -54.98801 | 7439 ft | 277 kts | 240° |
| 2026-04-26 01:31 | -34.91253 | -55.00975 | 8406 ft | 275 kts | 257° |
| 2026-04-26 01:31 | -34.91661 | -55.03261 | 9303 ft | 278 kts | 259° |
| 2026-04-26 01:31 | -34.92032 | -55.05581 | 10194 ft | 279 kts | 259° |
| 2026-04-26 01:31 | -34.92360 | -55.07985 | 10675 ft | 299 kts | 262° |
| 2026-04-26 01:32 | -34.92656 | -55.10601 | 10878 ft | 324 kts | 262° |
| 2026-04-26 01:32 | -34.92999 | -55.13410 | 11074 ft | 347 kts | 261° |
| 2026-04-26 01:32 | -34.93411 | -55.16395 | 11356 ft | 364 kts | 260° |
| 2026-04-26 01:32 | -34.93876 | -55.19451 | 12092 ft | 367 kts | 259° |
| 2026-04-26 01:33 | -34.94372 | -55.22507 | 12902 ft | 368 kts | 259° |
| 2026-04-26 01:33 | -34.94888 | -55.25573 | 13597 ft | 371 kts | 259° |
| 2026-04-26 01:33 | -34.95418 | -55.28659 | 14276 ft | 374 kts | 259° |
| 2026-04-26 01:33 | -34.95958 | -55.31771 | 14958 ft | 376 kts | 259° |
| 2026-04-26 01:34 | -34.96496 | -55.34862 | 15621 ft | 379 kts | 259° |
| 2026-04-26 01:34 | -34.97044 | -55.38007 | 16299 ft | 380 kts | 259° |
| 2026-04-26 01:34 | -34.97602 | -55.41209 | 16945 ft | 382 kts | 259° |
| 2026-04-26 01:34 | -34.98147 | -55.44347 | 17575 ft | 384 kts | 260° |
| 2026-04-26 01:35 | -34.98701 | -55.47546 | 18155 ft | 386 kts | 260° |
| 2026-04-26 01:35 | -34.99258 | -55.50766 | 18722 ft | 389 kts | 260° |
| 2026-04-26 01:35 | -34.99817 | -55.53998 | 19307 ft | 390 kts | 260° |
| 2026-04-26 01:35 | -35.00370 | -55.57241 | 19821 ft | 392 kts | 260° |
| 2026-04-26 01:36 | -35.00934 | -55.60511 | 20350 ft | 394 kts | 260° |
| 2026-04-26 01:36 | -35.01515 | -55.63787 | 20856 ft | 396 kts | 260° |
| 2026-04-26 01:36 | -35.02080 | -55.67088 | 21368 ft | 398 kts | 261° |
| 2026-04-26 01:37 | -35.03213 | -55.73740 | 22425 ft | 401 kts | 261° |
| 2026-04-26 01:37 | -35.03777 | -55.77070 | 22868 ft | 402 kts | 260° |
| 2026-04-26 01:37 | -35.04356 | -55.80430 | 23215 ft | 404 kts | 261° |
| 2026-04-26 01:37 | -35.04932 | -55.83802 | 23526 ft | 407 kts | 261° |
| 2026-04-26 01:38 | -35.05333 | -55.87231 | 23949 ft | 409 kts | 268° |
| 2026-04-26 01:38 | -35.05343 | -55.90677 | 24602 ft | 404 kts | 274° |
| 2026-04-26 01:38 | -35.05121 | -55.94105 | 24984 ft | 406 kts | 276° |
| 2026-04-26 01:38 | -35.04859 | -55.97540 | 25427 ft | 405 kts | 276° |
| 2026-04-26 01:39 | -35.04597 | -56.00959 | 25892 ft | 403 kts | 276° |
| 2026-04-26 01:39 | -35.04351 | -56.04331 | 25912 ft | 403 kts | 276° |
| 2026-04-26 01:39 | -35.04116 | -56.07736 | 25928 ft | 403 kts | 276° |
| 2026-04-26 01:39 | -35.03883 | -56.11143 | 25934 ft | 403 kts | 275° |
| 2026-04-26 01:40 | -35.03651 | -56.14552 | 25940 ft | 403 kts | 275° |
| 2026-04-26 01:40 | -35.03415 | -56.17960 | 25939 ft | 403 kts | 275° |
| 2026-04-26 01:40 | -35.03176 | -56.21369 | 25936 ft | 404 kts | 275° |
| 2026-04-26 01:40 | -35.02937 | -56.24783 | 25937 ft | 403 kts | 276° |
| 2026-04-26 01:41 | -35.02695 | -56.28194 | 25936 ft | 404 kts | 276° |
| 2026-04-26 01:41 | -35.02454 | -56.31601 | 25940 ft | 404 kts | 276° |
| 2026-04-26 01:41 | -35.02211 | -56.35016 | 25946 ft | 404 kts | 276° |
| 2026-04-26 01:41 | -35.01968 | -56.38429 | 25947 ft | 404 kts | 276° |
| 2026-04-26 01:42 | -35.01724 | -56.41838 | 25945 ft | 404 kts | 276° |
| 2026-04-26 01:42 | -35.01479 | -56.45251 | 25946 ft | 404 kts | 276° |
| 2026-04-26 01:42 | -35.01233 | -56.48659 | 25947 ft | 404 kts | 276° |
| 2026-04-26 01:42 | -35.00986 | -56.52070 | 25943 ft | 403 kts | 276° |
| 2026-04-26 01:43 | -35.00739 | -56.55486 | 25943 ft | 403 kts | 276° |
| 2026-04-26 01:43 | -35.00491 | -56.58893 | 25945 ft | 403 kts | 276° |
| 2026-04-26 01:43 | -35.00241 | -56.62300 | 25946 ft | 403 kts | 276° |
| 2026-04-26 01:43 | -34.99990 | -56.65703 | 25944 ft | 403 kts | 276° |
| 2026-04-26 01:44 | -34.99740 | -56.69109 | 25945 ft | 403 kts | 276° |
| 2026-04-26 01:44 | -34.99488 | -56.72510 | 25943 ft | 403 kts | 276° |
| 2026-04-26 01:44 | -34.99235 | -56.75913 | 25943 ft | 403 kts | 276° |
| 2026-04-26 01:44 | -34.98982 | -56.79319 | 25944 ft | 403 kts | 276° |
| 2026-04-26 01:45 | -34.98728 | -56.82721 | 25946 ft | 403 kts | 276° |
| 2026-04-26 01:45 | -34.98475 | -56.86081 | 25945 ft | 403 kts | 276° |
| 2026-04-26 01:45 | -34.98248 | -56.89532 | 25944 ft | 404 kts | 273° |
| 2026-04-26 01:45 | -34.98184 | -56.92916 | 25949 ft | 404 kts | 272° |
| 2026-04-26 01:46 | -34.98182 | -56.96390 | 25948 ft | 405 kts | 271° |
| 2026-04-26 01:46 | -34.98196 | -56.99778 | 25951 ft | 405 kts | 271° |
| 2026-04-26 01:46 | -34.98209 | -57.03211 | 25954 ft | 405 kts | 271° |